createdAt,value
2024-03-04T00:04:12.112Z,12.00
2024-03-04T00:09:15.316Z,12.60
2024-03-04T00:14:17.859Z,12.80
2024-03-04T00:19:20.485Z,12.50
2024-03-04T00:24:23.656Z,12.20
2024-03-04T00:29:28.946Z,12.00
2024-03-04T00:34:31.597Z,12.10
2024-03-04T00:39:34.200Z,11.80
2024-03-04T00:44:36.856Z,11.60
2024-03-04T00:49:39.398Z,11.40
2024-03-04T00:54:41.941Z,11.00
2024-03-04T00:59:44.962Z,11.40
2024-03-04T01:04:47.651Z,11.30
2024-03-04T01:09:50.170Z,10.80
2024-03-04T01:14:53.356Z,10.80
2024-03-04T01:19:56.677Z,10.80
2024-03-04T01:24:59.546Z,11.20
2024-03-04T01:30:02.056Z,11.60
2024-03-04T01:35:08.727Z,11.80
2024-03-04T01:40:14.762Z,11.50
2024-03-04T01:45:27.071Z,11.50
2024-03-04T01:50:34.934Z,11.60
2024-03-04T01:55:43.846Z,11.80
2024-03-04T02:00:50.343Z,11.90
2024-03-04T02:05:55.079Z,11.70
2024-03-04T02:10:58.669Z,11.30
2024-03-04T02:16:01.754Z,11.10
2024-03-04T02:21:06.172Z,10.70
2024-03-04T02:26:08.664Z,10.60
2024-03-04T02:31:11.785Z,11.20
2024-03-04T02:36:14.522Z,11.40
2024-03-04T02:41:17.077Z,11.20
2024-03-04T02:46:20.163Z,11.20
2024-03-04T02:51:23.087Z,10.70
2024-03-04T02:56:25.747Z,10.60
2024-03-04T03:01:29.466Z,10.30
2024-03-04T03:06:32.164Z,10.60
2024-03-04T03:11:34.561Z,10.80
2024-03-04T03:16:37.190Z,10.80
2024-03-04T03:21:40.316Z,10.90
2024-03-04T03:26:42.675Z,10.90
2024-03-04T03:31:45.847Z,10.40
2024-03-04T03:36:48.409Z,10.00
2024-03-04T03:41:51.015Z,9.90
2024-03-04T03:46:53.482Z,9.80
2024-03-04T03:51:56.081Z,10.00
2024-03-04T03:56:58.513Z,10.10
2024-03-04T04:02:01.158Z,10.60
2024-03-04T04:07:04.239Z,10.30
2024-03-04T04:12:07.838Z,9.60
2024-03-04T04:17:10.356Z,9.80
2024-03-04T04:22:13.034Z,9.60
2024-03-04T04:27:15.465Z,8.90
2024-03-04T04:32:18.994Z,9.00
2024-03-04T04:37:21.874Z,9.20
2024-03-04T04:42:25.201Z,8.80
2024-03-04T04:47:28.549Z,8.10
2024-03-04T04:52:31.954Z,8.00
2024-03-04T04:57:34.435Z,7.80
2024-03-04T05:02:36.851Z,7.70
2024-03-04T05:07:40.787Z,7.60
2024-03-04T05:12:43.926Z,7.60
2024-03-04T05:17:47.455Z,7.50
2024-03-04T05:22:50.349Z,7.60
2024-03-04T05:27:52.847Z,7.00
2024-03-04T05:32:55.282Z,6.60
2024-03-04T05:43:00.885Z,6.40
2024-03-04T05:48:03.524Z,6.20
2024-03-04T05:53:06.117Z,6.10
2024-03-04T05:58:08.751Z,6.20
2024-03-04T06:03:12.844Z,6.10
2024-03-04T06:08:16.109Z,6.20
2024-03-04T06:13:19.042Z,6.20
2024-03-04T06:18:21.573Z,6.20
2024-03-04T06:23:24.009Z,6.20
2024-03-04T06:28:26.481Z,6.60
2024-03-04T06:33:39.871Z,6.70
2024-03-04T06:38:51.758Z,6.50
2024-03-04T06:43:54.448Z,6.10
2024-03-04T06:48:58.216Z,5.90
2024-03-04T06:54:00.728Z,5.80
2024-03-04T06:59:04.053Z,5.60
2024-03-04T07:04:07.703Z,5.40
2024-03-04T07:09:10.221Z,5.20
2024-03-04T07:14:12.678Z,5.20
2024-03-04T07:19:15.318Z,5.20
2024-03-04T07:24:19.038Z,5.30
2024-03-04T07:29:27.333Z,5.70
2024-03-04T07:34:38.652Z,5.90
2024-03-04T07:39:41.736Z,6.20
2024-03-04T07:44:45.955Z,6.20
2024-03-04T07:49:48.486Z,6.50
2024-03-04T07:54:50.912Z,6.90
2024-03-04T07:59:53.474Z,6.70
2024-03-04T08:04:56.035Z,7.20
2024-03-04T08:09:58.817Z,7.80
2024-03-04T08:15:01.887Z,7.70
2024-03-04T08:20:11.494Z,8.70
2024-03-04T08:25:19.633Z,9.10
2024-03-04T08:30:22.306Z,9.70
2024-03-04T08:35:24.777Z,10.30
2024-03-04T08:40:28.182Z,10.30
2024-03-04T08:45:30.875Z,10.50
2024-03-04T08:50:33.588Z,10.50
2024-03-04T08:55:36.027Z,9.80
2024-03-04T09:00:40.554Z,10.00
2024-03-04T09:05:45.733Z,10.40
2024-03-04T09:10:49.529Z,10.90
2024-03-04T09:15:52.079Z,10.10
2024-03-04T09:20:57.045Z,10.10
2024-03-04T09:25:59.619Z,10.20
2024-03-04T09:31:02.051Z,11.00
2024-03-04T09:41:08.092Z,12.30
2024-03-04T09:46:11.150Z,11.80
2024-03-04T09:51:15.319Z,12.00
2024-03-04T09:56:18.587Z,11.30
2024-03-04T10:01:21.901Z,10.70
2024-03-04T10:06:24.502Z,10.70
2024-03-04T10:11:27.090Z,10.70
2024-03-04T10:16:30.144Z,10.60
2024-03-04T10:21:33.608Z,10.40
2024-03-04T10:26:48.438Z,10.90
2024-03-04T10:31:56.108Z,10.80
2024-03-04T10:36:59.814Z,10.70
2024-03-04T10:42:04.465Z,11.00
2024-03-04T10:47:08.192Z,11.50
2024-03-04T10:52:14.107Z,11.30
2024-03-04T10:57:27.844Z,11.10
2024-03-04T11:02:44.124Z,11.20
2024-03-04T11:07:47.786Z,11.50
2024-03-04T11:13:19.209Z,11.60
2024-03-04T11:18:52.645Z,11.70
2024-03-04T11:23:55.639Z,11.30
2024-03-04T11:34:30.217Z,11.10
2024-03-04T11:39:32.706Z,10.30
2024-03-04T11:44:35.121Z,11.10
2024-03-04T11:49:46.809Z,11.90
2024-03-04T11:54:50.027Z,12.60
2024-03-04T12:05:03.494Z,13.10
2024-03-04T12:10:13.222Z,12.00
2024-03-04T12:15:20.100Z,11.70
2024-03-04T12:20:22.996Z,12.00
2024-03-04T12:25:28.445Z,11.40
2024-03-04T12:30:31.118Z,11.80
2024-03-04T12:35:34.247Z,12.00
2024-03-04T12:40:37.159Z,11.60
2024-03-04T12:45:39.841Z,12.20
2024-03-04T12:50:44.265Z,12.00
2024-03-04T12:55:49.196Z,12.10
2024-03-04T13:00:52.143Z,12.70
2024-03-04T13:10:59.275Z,13.00
2024-03-04T13:16:01.845Z,13.90
2024-03-04T13:21:06.580Z,13.80
2024-03-04T13:26:09.041Z,14.30
2024-03-04T13:31:11.597Z,13.80
2024-03-04T13:36:14.085Z,13.80
2024-03-04T13:41:16.527Z,14.30
2024-03-04T13:46:19.102Z,14.20
2024-03-04T13:51:21.478Z,14.00
2024-03-04T13:56:24.212Z,14.00
2024-03-04T14:01:27.749Z,14.40
2024-03-04T14:06:30.536Z,14.20
2024-03-04T14:11:33.019Z,12.60
2024-03-04T14:16:36.519Z,12.80
2024-03-04T14:21:39.238Z,12.80
2024-03-04T14:26:41.756Z,13.60
2024-03-04T14:31:44.240Z,14.00
2024-03-04T14:36:47.909Z,13.70
2024-03-04T14:41:50.507Z,13.40
2024-03-04T14:46:53.021Z,12.80
2024-03-04T14:51:55.799Z,12.80
2024-03-04T14:56:58.136Z,12.90
2024-03-04T15:02:00.620Z,12.90
2024-03-04T15:07:05.524Z,13.20
2024-03-04T15:12:08.780Z,13.40
2024-03-04T15:17:11.319Z,12.90
2024-03-04T15:22:13.878Z,13.10
2024-03-04T15:27:16.793Z,13.30
2024-03-04T15:32:19.539Z,12.70
2024-03-04T15:37:23.238Z,12.60
2024-03-04T15:42:25.689Z,10.40
2024-03-04T15:47:28.279Z,10.20
2024-03-04T15:52:30.762Z,9.90
2024-03-04T15:57:33.188Z,9.80
2024-03-04T16:02:35.690Z,9.40
2024-03-04T16:07:38.410Z,9.30
2024-03-04T16:12:41.023Z,9.90
2024-03-04T16:17:43.776Z,10.70
2024-03-04T16:22:46.678Z,10.60
2024-03-04T16:27:51.539Z,10.50
2024-03-04T16:32:54.098Z,10.60
2024-03-04T16:37:56.659Z,10.40
2024-03-04T16:42:59.130Z,10.20
2024-03-04T16:48:02.130Z,9.60
2024-03-04T16:53:04.776Z,10.30
2024-03-04T16:58:07.393Z,10.50
2024-03-04T17:03:09.955Z,9.90
2024-03-04T17:08:14.096Z,9.90
2024-03-04T17:13:17.018Z,10.00
2024-03-04T17:18:19.734Z,9.70
2024-03-04T17:23:22.499Z,10.40
2024-03-04T17:28:24.999Z,9.50
2024-03-04T17:33:27.555Z,8.30
2024-03-04T17:38:29.994Z,8.20
2024-03-04T17:43:32.444Z,7.70
2024-03-04T17:48:34.977Z,7.40
2024-03-04T17:53:38.670Z,7.80
2024-03-04T17:58:41.149Z,8.10
2024-03-04T18:03:43.511Z,8.00
2024-03-04T18:08:45.996Z,7.80
2024-03-04T18:13:48.667Z,8.00
2024-03-04T18:18:51.145Z,8.90
2024-03-04T18:23:53.651Z,9.90
2024-03-04T18:40:12.690Z,9.50
2024-03-04T18:45:15.402Z,9.10
2024-03-04T18:50:18.704Z,8.70
2024-03-04T18:55:21.213Z,9.10
2024-03-04T19:00:23.808Z,9.30
2024-03-04T19:05:29.822Z,8.70
2024-03-04T19:10:32.417Z,8.80
2024-03-04T19:15:35.037Z,8.30
2024-03-04T19:20:40.268Z,8.50
2024-03-04T19:25:42.833Z,9.00
2024-03-04T19:30:45.405Z,8.90
2024-03-04T19:35:47.971Z,8.70
2024-03-04T19:40:50.578Z,8.90
2024-03-04T19:45:53.068Z,8.90
2024-03-04T19:56:01.532Z,10.00
2024-03-04T20:01:05.244Z,10.40
2024-03-04T20:06:07.901Z,10.10
2024-03-04T20:11:12.690Z,9.40
2024-03-04T20:16:16.982Z,9.70
2024-03-04T20:21:20.174Z,9.20
2024-03-04T20:26:23.101Z,9.30
2024-03-04T20:31:25.555Z,9.20
2024-03-04T20:36:28.135Z,9.40
2024-03-04T20:41:30.619Z,8.50
2024-03-04T20:46:33.080Z,8.70
2024-03-04T20:51:36.297Z,8.50
2024-03-04T20:56:38.768Z,8.20
2024-03-04T21:01:41.769Z,8.30
2024-03-04T21:06:45.176Z,7.90
2024-03-04T21:11:53.430Z,8.00
2024-03-04T21:16:57.041Z,7.90
2024-03-04T21:21:59.644Z,7.80
2024-03-04T21:27:02.155Z,7.70
2024-03-04T21:32:05.865Z,7.70
2024-03-04T21:37:16.909Z,7.30
2024-03-04T21:42:25.131Z,7.70
2024-03-04T21:47:28.291Z,7.60
2024-03-04T21:52:30.903Z,7.00
2024-03-04T21:57:33.693Z,7.50
2024-03-04T22:02:36.241Z,7.30
2024-03-04T22:07:39.489Z,6.90
2024-03-04T22:12:42.160Z,6.50
2024-03-04T22:17:44.815Z,6.40
2024-03-04T22:22:47.332Z,6.30
2024-03-04T22:27:49.852Z,6.10
2024-03-04T22:32:52.382Z,6.00
2024-03-04T22:37:55.705Z,6.00
2024-03-04T22:42:58.872Z,5.90
2024-03-04T22:48:01.625Z,6.10
2024-03-04T22:53:04.780Z,6.10
2024-03-04T22:58:07.313Z,5.90
2024-03-04T23:03:12.193Z,5.80
2024-03-04T23:08:15.399Z,5.70
2024-03-04T23:13:18.621Z,5.70
2024-03-04T23:18:21.097Z,5.70
2024-03-04T23:23:23.539Z,5.70
2024-03-04T23:28:26.400Z,5.70
2024-03-04T23:33:29.359Z,5.70
2024-03-04T23:38:31.800Z,5.40
2024-03-04T23:48:38.015Z,5.60
2024-03-04T23:53:40.790Z,5.40
2024-03-04T23:58:43.294Z,5.30
